Accueil
METAR-TAF:

METAR-TAF

Aéroports :

Flessingue, Pays-Bas

latitude: 51-27N, longitude: 3-36E, altitude: 10 m

Observation

Le bulletin a été fait il y a 33 minutes, à 04:25 UTC
Vent 16 kt de est/nord-est
Température 4°C
Humidité 93%
Pression 1023 hPa
Visibilité: 8000 m
Quelques nuages à une hauteur de 1000 ft

METAR: EHFS 190425Z AUTO 07016KT 8000 FEW010 04/03 Q1023 W///H///

Heure: 05:58 (04:58 UTC)


TAF: absent

Observations et prévisions météorologiques de plus de 4000 aéroports (messages METAR et TAF).

Les stations disponibles sont représentées par des disques jaunes et rouges sur la carte.

Passer la souris dessus pour voir le nom de la station.

Cliquer dessus pour voir les observations et prévisions météorologiques.

Pour changer de carte: cliquez sur les boutons verts avec une croix noire pour zoomer, sur le bouton vert avec un tiret pour effectuer un zoom arrière, ou sur les flèches vertes pour les cartes adjacentes.


METAR-TAF: